Time;durP1;ratioP1;P1;durP2;ratioP2;P2;SDS_P1;SDS_P2;PMS_P1;PMS_P2;Temp;Humidity;BMP_temperature;BMP_pressure;BME280_temperature;BME280_humidity;BME280_pressure;Samples;Min_cycle;Max_cycle;Signal;HPM_P1;HPM_P2
2022/09/12 00:00:46;;;;;;;5.78;2.10;;;12.50;99.90;;;;;;5060402;28;21423;-71
2022/09/12 00:03:12;;;;;;;2.83;2.03;;;12.40;99.90;;;;;;5043983;28;20057;-72
2022/09/12 00:05:45;;;;;;;2.85;2.03;;;12.50;99.90;;;;;;5049085;28;20036;-72
2022/09/12 00:08:12;;;;;;;2.10;1.75;;;12.40;99.90;;;;;;5059048;28;20040;-72
2022/09/12 00:10:39;;;;;;;2.38;2.17;;;12.40;99.90;;;;;;5066118;28;20036;-72
2022/09/12 00:13:06;;;;;;;2.88;2.67;;;12.40;99.90;;;;;;5050332;28;20049;-72
2022/09/12 00:15:36;;;;;;;3.15;2.85;;;12.50;99.90;;;;;;5052781;28;20094;-72
2022/09/12 00:18:01;;;;;;;3.00;2.70;;;12.50;99.90;;;;;;5062488;28;20051;-72
2022/09/12 00:20:27;;;;;;;2.75;2.15;;;12.50;99.90;;;;;;5049163;28;20052;-71
2022/09/12 00:22:53;;;;;;;3.33;2.00;;;12.40;99.90;;;;;;5045599;28;20044;-72
2022/09/12 00:25:18;;;;;;;2.50;2.20;;;12.40;99.90;;;;;;5043658;28;20044;-72
2022/09/12 00:27:44;;;;;;;2.97;2.30;;;12.30;99.90;;;;;;5044823;28;20048;-72
2022/09/12 00:30:10;;;;;;;4.72;3.70;;;12.30;99.90;;;;;;5042932;28;20441;-72
2022/09/12 00:32:35;;;;;;;4.80;3.78;;;12.30;99.90;;;;;;5040788;28;20207;-72
2022/09/12 00:35:01;;;;;;;3.40;3.10;;;12.30;99.90;;;;;;5048355;28;20139;-72
2022/09/12 00:37:27;;;;;;;4.00;3.60;;;12.40;99.90;;;;;;5043012;28;20045;-72
2022/09/12 00:39:53;;;;;;;2.70;2.50;;;12.30;99.90;;;;;;5050630;28;20037;-72
2022/09/12 00:42:18;;;;;;;3.20;1.73;;;12.30;99.90;;;;;;5051702;28;20483;-72
2022/09/12 00:44:48;;;;;;;25.73;2.10;;;12.40;99.90;;;;;;5045667;28;20025;-71
2022/09/12 00:47:28;;;;;;;1.40;1.30;;;12.20;99.90;;;;;;5041269;28;20036;-72
2022/09/12 00:50:05;;;;;;;2.85;2.55;;;12.10;99.90;;;;;;5065715;28;20053;-72
2022/09/12 00:52:48;;;;;;;3.65;2.90;;;12.20;99.90;;;;;;5063211;28;20048;-71
2022/09/12 00:55:21;;;;;;;5.03;3.13;;;12.20;99.90;;;;;;5045860;28;20068;-72
2022/09/12 00:57:56;;;;;;;4.78;3.75;;;12.20;99.90;;;;;;5046154;28;20407;-71
2022/09/12 01:00:24;;;;;;;5.15;3.53;;;12.20;99.90;;;;;;5063972;28;20082;-72
2022/09/12 01:02:58;;;;;;;4.63;3.88;;;12.20;99.90;;;;;;5039507;28;20752;-71
2022/09/12 01:05:27;;;;;;;4.70;3.90;;;12.20;99.90;;;;;;5056196;28;20491;-71
2022/09/12 01:07:55;;;;;;;5.43;4.70;;;12.20;99.90;;;;;;5046134;28;20368;-71
2022/09/12 01:10:21;;;;;;;5.90;3.97;;;12.30;99.90;;;;;;5050559;28;20033;-71
2022/09/12 01:12:47;;;;;;;6.53;4.40;;;12.20;99.90;;;;;;5050999;28;20508;-71
2022/09/12 01:15:13;;;;;;;4.40;4.00;;;12.20;99.90;;;;;;5047049;28;20044;-71
2022/09/12 01:17:41;;;;;;;6.75;4.45;;;12.20;99.90;;;;;;5040483;28;20344;-71
2022/09/12 01:20:41;;;;;;;5.00;4.50;;;12.30;99.90;;;;;;5059099;28;20131;-71
2022/09/12 01:23:29;;;;;;;7.30;5.35;;;12.20;99.90;;;;;;5036462;28;20057;-71
2022/09/12 01:26:34;;;;;;;7.25;6.03;;;12.20;99.90;;;;;;5035055;28;20364;-71
2022/09/12 01:29:08;;;;;;;12.25;8.68;;;12.20;99.90;;;;;;5018448;28;20144;-71
2022/09/12 01:31:46;;;;;;;10.70;7.75;;;12.20;99.90;;;;;;5054221;28;20037;-70
2022/09/12 01:34:17;;;;;;;9.50;6.72;;;12.20;99.90;;;;;;5048881;28;20053;-70
2022/09/12 01:36:51;;;;;;;10.10;7.75;;;12.10;99.90;;;;;;5054073;28;20041;-71
2022/09/12 01:39:39;;;;;;;15.02;9.80;;;12.10;99.90;;;;;;5049556;28;20092;-71
2022/09/12 01:42:53;;;;;;;11.07;7.72;;;12.20;99.90;;;;;;5050925;28;20036;-71
2022/09/12 01:45:44;;;;;;;8.68;6.97;;;12.20;99.90;;;;;;5004410;28;20069;-71
2022/09/12 01:48:18;;;;;;;9.98;7.10;;;12.10;99.90;;;;;;5050751;28;20479;-70
2022/09/12 01:50:55;;;;;;;13.50;9.70;;;12.10;99.90;;;;;;5039910;28;20085;-70
2022/09/12 01:53:29;;;;;;;14.68;10.68;;;12.10;99.90;;;;;;5053275;28;20498;-70
2022/09/12 01:56:16;;;;;;;16.80;10.98;;;12.10;99.90;;;;;;5045774;28;20471;-70
2022/09/12 01:59:01;;;;;;;20.27;13.52;;;12.10;99.90;;;;;;5066583;28;20166;-70
2022/09/12 02:01:32;;;;;;;25.48;16.75;;;12.10;99.90;;;;;;5041412;28;20045;-71
2022/09/12 02:04:24;;;;;;;23.87;16.03;;;12.10;99.90;;;;;;5046350;28;20035;-70
2022/09/12 02:07:22;;;;;;;28.83;16.77;;;12.10;99.90;;;;;;5044869;28;20033;-70
2022/09/12 02:09:51;;;;;;;25.63;16.73;;;12.10;99.90;;;;;;5042235;28;20440;-70
2022/09/12 02:12:23;;;;;;;24.75;15.00;;;12.20;99.90;;;;;;5044580;28;20434;-70
2022/09/12 02:14:57;;;;;;;27.60;18.20;;;12.10;99.90;;;;;;5050033;28;20059;-70
2022/09/12 02:17:25;;;;;;;26.13;16.65;;;12.20;99.90;;;;;;5051725;28;20648;-70
2022/09/12 02:20:02;;;;;;;31.15;19.35;;;12.10;99.90;;;;;;5063738;28;20498;-70
2022/09/12 02:22:30;;;;;;;27.58;17.58;;;12.20;99.90;;;;;;5042635;28;20724;-70
2022/09/12 02:25:00;;;;;;;26.33;17.88;;;12.10;99.90;;;;;;5055572;28;20037;-70
2022/09/12 02:27:38;;;;;;;30.30;18.58;;;12.20;99.90;;;;;;5043710;28;20123;-70
2022/09/12 02:30:06;;;;;;;40.15;22.25;;;12.10;99.90;;;;;;5047554;28;20124;-70
2022/09/12 02:32:59;;;;;;;32.50;20.48;;;12.10;99.90;;;;;;5051228;28;20041;-70
2022/09/12 02:35:45;;;;;;;38.22;22.77;;;12.10;99.90;;;;;;5054951;28;20044;-70
2022/09/12 02:38:22;;;;;;;41.58;23.05;;;12.20;99.90;;;;;;5044660;28;20574;-70
2022/09/12 02:40:48;;;;;;;45.10;25.88;;;12.20;99.90;;;;;;5040937;28;20044;-70
2022/09/12 02:43:14;;;;;;;39.80;23.67;;;12.20;99.90;;;;;;5059323;28;20029;-70
2022/09/12 02:45:39;;;;;;;45.58;26.25;;;12.20;99.90;;;;;;5052965;28;20036;-70
2022/09/12 02:48:10;;;;;;;44.83;26.42;;;12.20;99.90;;;;;;5058415;28;20079;-71
2022/09/12 02:50:36;;;;;;;43.92;26.02;;;12.20;99.90;;;;;;5048870;28;20037;-70
2022/09/12 02:53:03;;;;;;;44.72;26.23;;;12.30;99.90;;;;;;5065788;28;20537;-70
2022/09/12 02:55:33;;;;;;;42.60;25.30;;;12.20;99.90;;;;;;5044994;28;20037;-70
2022/09/12 02:58:02;;;;;;;40.30;23.58;;;12.30;99.90;;;;;;5046911;28;20397;-70
2022/09/12 03:00:33;;;;;;;44.33;25.48;;;12.20;99.90;;;;;;5047325;28;20044;-70
2022/09/12 03:02:59;;;;;;;49.22;28.17;;;12.30;99.90;;;;;;5051474;28;20489;-70
2022/09/12 03:05:32;;;;;;;45.53;26.98;;;12.30;99.90;;;;;;5044612;28;20075;-70
2022/09/12 03:08:20;;;;;;;50.47;28.15;;;12.30;99.90;;;;;;5048761;28;20098;-70
2022/09/12 03:11:14;;;;;;;50.45;27.92;;;12.30;99.90;;;;;;5054842;28;20041;-70
2022/09/12 03:14:06;;;;;;;48.83;27.27;;;12.20;99.90;;;;;;5039206;28;20033;-70
2022/09/12 03:16:41;;;;;;;50.00;28.98;;;12.30;99.90;;;;;;5046036;28;20048;-70
2022/09/12 03:19:32;;;;;;;49.35;28.63;;;12.20;99.90;;;;;;5045198;28;21348;-70
2022/09/12 03:22:22;;;;;;;45.80;26.50;;;12.20;99.90;;;;;;5040019;28;20045;-70
2022/09/12 03:24:55;;;;;;;42.80;25.45;;;12.30;99.90;;;;;;5051052;28;20028;-70
2022/09/12 03:27:32;;;;;;;43.38;25.23;;;12.20;99.90;;;;;;5058901;28;20398;-71
2022/09/12 03:29:59;;;;;;;46.92;27.38;;;12.30;99.90;;;;;;5042183;28;20483;-71
2022/09/12 03:32:45;;;;;;;51.67;27.77;;;12.20;99.90;;;;;;5041686;28;20036;-71
2022/09/12 03:35:12;;;;;;;45.97;25.48;;;12.20;99.90;;;;;;5042677;28;20048;-71
2022/09/12 03:37:38;;;;;;;46.95;25.25;;;12.20;99.90;;;;;;5058252;28;20116;-70
2022/09/12 03:40:05;;;;;;;44.40;24.83;;;12.30;99.90;;;;;;5039226;28;20132;-70
2022/09/12 03:42:31;;;;;;;44.13;24.75;;;12.30;99.90;;;;;;5040768;28;20045;-70
2022/09/12 03:44:57;;;;;;;41.58;25.17;;;12.30;99.90;;;;;;5050718;28;20484;-70
2022/09/12 03:47:22;;;;;;;49.03;27.10;;;12.20;99.90;;;;;;5051938;28;20043;-71
2022/09/12 03:49:48;;;;;;;52.90;28.58;;;12.20;99.90;;;;;;5047484;28;20375;-70
2022/09/12 03:52:13;;;;;;;51.58;28.20;;;12.20;99.90;;;;;;5047861;28;20051;-71
2022/09/12 03:54:39;;;;;;;48.72;27.58;;;12.20;99.90;;;;;;5056390;28;20038;-71
2022/09/12 03:57:05;;;;;;;43.80;25.02;;;12.20;99.90;;;;;;5045068;28;20088;-71
2022/09/12 03:59:31;;;;;;;44.35;24.50;;;12.30;99.90;;;;;;5042101;28;20376;-71
2022/09/12 04:01:56;;;;;;;42.72;24.35;;;12.20;99.90;;;;;;5043264;28;21263;-70
2022/09/12 04:04:22;;;;;;;41.60;23.98;;;12.30;99.90;;;;;;5045885;28;20041;-71
2022/09/12 04:06:48;;;;;;;41.42;22.58;;;12.20;99.90;;;;;;5043513;28;20071;-70
2022/09/12 04:09:13;;;;;;;42.92;23.20;;;12.20;99.90;;;;;;5045231;28;20044;-70
2022/09/12 04:11:39;;;;;;;48.50;26.30;;;12.20;99.90;;;;;;5066770;28;20032;-70
2022/09/12 04:14:05;;;;;;;44.25;25.50;;;12.20;99.90;;;;;;5044192;28;20044;-71
2022/09/12 04:16:31;;;;;;;50.85;26.30;;;12.30;99.90;;;;;;5045681;28;20040;-71
2022/09/12 04:18:57;;;;;;;46.03;26.00;;;12.20;99.90;;;;;;5048777;28;20041;-71
2022/09/12 04:21:22;;;;;;;48.28;26.40;;;12.20;99.90;;;;;;5062005;28;20048;-71
2022/09/12 04:23:48;;;;;;;37.75;22.08;;;12.30;99.90;;;;;;5052110;28;20483;-71
2022/09/12 04:26:16;;;;;;;41.78;24.20;;;12.30;99.90;;;;;;5040740;28;20041;-71
2022/09/12 04:28:42;;;;;;;44.95;25.20;;;12.20;99.90;;;;;;5067196;28;20036;-71
2022/09/12 04:31:12;;;;;;;46.60;26.30;;;12.20;99.90;;;;;;5039107;28;20029;-71
2022/09/12 04:33:38;;;;;;;44.88;23.77;;;12.30;99.90;;;;;;5056144;28;20048;-71
2022/09/12 04:36:15;;;;;;;41.63;24.65;;;12.30;99.90;;;;;;5050870;28;20036;-71
2022/09/12 04:38:43;;;;;;;41.75;23.05;;;12.20;99.90;;;;;;5048020;28;20041;-69
2022/09/12 04:41:19;;;;;;;36.08;20.80;;;12.20;99.90;;;;;;5048299;28;20119;-71
2022/09/12 04:43:45;;;;;;;37.90;22.08;;;12.30;99.90;;;;;;5048171;28;20519;-71
2022/09/12 04:46:14;;;;;;;41.30;22.30;;;12.20;99.90;;;;;;5047556;28;20120;-71
2022/09/12 04:48:39;;;;;;;39.47;21.70;;;12.30;99.90;;;;;;5034688;28;20088;-71
2022/09/12 04:51:11;;;;;;;44.50;23.25;;;12.20;99.90;;;;;;5044740;28;20029;-71
2022/09/12 04:53:37;;;;;;;43.03;24.75;;;12.10;99.90;;;;;;5048823;28;20051;-71
2022/09/12 04:56:08;;;;;;;45.25;25.05;;;12.30;99.90;;;;;;5054027;28;20037;-71
2022/09/12 04:58:34;;;;;;;52.35;27.42;;;12.30;99.90;;;;;;5058625;28;20090;-70
2022/09/12 05:01:15;;;;;;;51.20;26.23;;;12.30;99.90;;;;;;5052727;28;20047;-71
2022/09/12 05:03:42;;;;;;;48.35;25.38;;;12.30;99.90;;;;;;5047179;28;20468;-71
2022/09/12 05:06:13;;;;;;;70.45;30.48;;;12.30;99.90;;;;;;5040437;28;20040;-71
2022/09/12 05:08:39;;;;;;;56.83;28.55;;;12.30;99.90;;;;;;5043927;28;20033;-71
2022/09/12 05:11:11;;;;;;;50.03;26.55;;;12.40;99.90;;;;;;5043482;28;20734;-71
2022/09/12 05:13:38;;;;;;;57.00;28.88;;;12.40;99.90;;;;;;5042245;28;20459;-71
2022/09/12 05:16:04;;;;;;;70.70;30.33;;;12.40;99.90;;;;;;5039436;28;20059;-71
2022/09/12 05:18:31;;;;;;;64.60;30.30;;;12.40;99.90;;;;;;5039725;28;20052;-70
2022/09/12 05:20:59;;;;;;;57.42;28.15;;;12.40;99.90;;;;;;5042105;28;20045;-71
2022/09/12 05:23:24;;;;;;;80.65;30.98;;;12.50;99.90;;;;;;5050922;28;20098;-70
2022/09/12 05:25:51;;;;;;;70.97;28.90;;;12.60;99.90;;;;;;5056237;28;20040;-71
2022/09/12 05:28:18;;;;;;;50.40;27.58;;;12.50;99.90;;;;;;5055467;28;20084;-71
2022/09/12 05:30:43;;;;;;;76.20;31.08;;;12.60;99.90;;;;;;5048354;28;20036;-71
2022/09/12 05:33:10;;;;;;;56.17;28.50;;;12.60;99.90;;;;;;5057256;28;20036;-71
2022/09/12 05:35:37;;;;;;;48.20;26.45;;;12.70;99.90;;;;;;5049924;28;20185;-70
2022/09/12 05:38:03;;;;;;;51.95;28.33;;;12.70;99.90;;;;;;5051544;28;20045;-71
2022/09/12 05:40:29;;;;;;;62.83;29.50;;;12.70;99.90;;;;;;5057403;28;20047;-71
2022/09/12 05:42:55;;;;;;;51.58;28.13;;;12.80;99.90;;;;;;5053795;28;20385;-71
2022/09/12 05:45:20;;;;;;;56.72;28.13;;;12.70;99.90;;;;;;5044195;28;20048;-72
2022/09/12 05:47:46;;;;;;;48.50;27.23;;;12.80;99.90;;;;;;5050768;28;20041;-70
2022/09/12 05:50:12;;;;;;;57.40;28.45;;;12.80;99.90;;;;;;5044253;28;20067;-71
2022/09/12 05:52:37;;;;;;;55.17;28.52;;;12.80;99.90;;;;;;5048226;28;20056;-71
2022/09/12 05:55:04;;;;;;;52.55;28.40;;;12.80;99.90;;;;;;5043233;28;20053;-71
2022/09/12 05:57:29;;;;;;;60.95;29.40;;;12.80;99.90;;;;;;5028720;28;20297;-71
2022/09/12 05:59:55;;;;;;;54.15;27.90;;;13.00;99.90;;;;;;5045869;28;20053;-71
2022/09/12 06:02:21;;;;;;;52.42;27.48;;;13.00;99.90;;;;;;5052394;28;20048;-71
2022/09/12 06:04:46;;;;;;;46.92;26.25;;;12.90;99.90;;;;;;5060369;28;20175;-71
2022/09/12 06:07:13;;;;;;;57.78;29.23;;;13.00;99.90;;;;;;5044848;28;20025;-71
2022/09/12 06:09:38;;;;;;;59.97;30.88;;;13.00;99.90;;;;;;5046121;28;20681;-71
2022/09/12 06:12:04;;;;;;;63.25;31.63;;;13.10;99.90;;;;;;5051216;28;20040;-71
2022/09/12 06:14:31;;;;;;;63.22;30.73;;;13.10;99.90;;;;;;5039499;28;20164;-71
2022/09/12 06:16:57;;;;;;;66.53;31.98;;;13.20;99.90;;;;;;5054239;28;20059;-71
2022/09/12 06:19:23;;;;;;;63.28;30.55;;;13.20;99.90;;;;;;5053551;28;20032;-72
2022/09/12 06:21:52;;;;;;;63.58;30.88;;;13.30;99.90;;;;;;5048908;28;20099;-71
2022/09/12 06:24:19;;;;;;;73.95;33.58;;;13.30;99.90;;;;;;5069747;28;20131;-71
2022/09/12 06:26:46;;;;;;;66.88;33.00;;;13.20;99.90;;;;;;5056522;28;20040;-71
2022/09/12 06:29:12;;;;;;;60.78;32.33;;;13.30;99.90;;;;;;5061075;28;20028;-71
2022/09/12 06:31:40;;;;;;;65.88;32.58;;;13.30;99.90;;;;;;5059035;28;20185;-71
2022/09/12 06:34:07;;;;;;;68.25;33.45;;;13.40;99.90;;;;;;5072282;28;20052;-71
2022/09/12 06:36:37;;;;;;;73.93;34.13;;;13.50;99.90;;;;;;5073753;28;20179;-71
2022/09/12 06:39:06;;;;;;;61.42;31.40;;;13.50;99.90;;;;;;5053613;28;20125;-71
2022/09/12 06:41:32;;;;;;;81.28;34.50;;;13.60;99.90;;;;;;5059596;28;20124;-71
2022/09/12 06:43:59;;;;;;;68.00;34.25;;;13.50;99.90;;;;;;5056860;28;20028;-71
2022/09/12 06:46:25;;;;;;;87.00;37.03;;;13.70;99.90;;;;;;5055702;28;20038;-71
2022/09/12 06:48:52;;;;;;;76.25;37.42;;;13.60;99.90;;;;;;5055398;28;20054;-71
2022/09/12 06:51:19;;;;;;;72.55;35.28;;;13.70;99.90;;;;;;5056964;28;20048;-72
2022/09/12 06:53:45;;;;;;;77.60;37.08;;;13.90;99.90;;;;;;5048904;28;20041;-71
2022/09/12 06:56:19;;;;;;;83.60;37.33;;;13.80;99.90;;;;;;5056267;28;20491;-71
2022/09/12 06:58:45;;;;;;;80.72;38.17;;;14.00;99.90;;;;;;5069313;28;20047;-71
2022/09/12 07:01:20;;;;;;;89.75;41.60;;;13.90;99.90;;;;;;5063710;28;20117;-71
2022/09/12 07:03:51;;;;;;;89.78;40.75;;;14.00;99.90;;;;;;5060925;28;20484;-71
2022/09/12 07:06:19;;;;;;;102.57;43.63;;;14.00;99.90;;;;;;5057899;28;20483;-71
2022/09/12 07:08:45;;;;;;;94.30;41.90;;;14.20;99.90;;;;;;5054820;28;20802;-71
2022/09/12 07:11:23;;;;;;;85.82;39.60;;;14.30;99.90;;;;;;5060884;28;20036;-71
2022/09/12 07:13:51;;;;;;;81.95;38.95;;;14.20;99.90;;;;;;5057970;28;20390;-71
2022/09/12 07:16:17;;;;;;;86.95;41.22;;;14.30;99.90;;;;;;5061362;28;20372;-71
2022/09/12 07:18:42;;;;;;;97.55;43.25;;;14.30;99.90;;;;;;5044321;28;20060;-70
2022/09/12 07:21:13;;;;;;;96.90;42.95;;;14.50;99.90;;;;;;5049362;28;20384;-71
2022/09/12 07:23:40;;;;;;;96.75;42.22;;;14.60;99.90;;;;;;5050773;28;20394;-71
2022/09/12 07:26:08;;;;;;;111.10;43.75;;;14.50;99.90;;;;;;5045580;28;20512;-71
2022/09/12 07:28:34;;;;;;;102.97;42.70;;;14.70;99.90;;;;;;5032083;28;20049;-71
2022/09/12 07:31:12;;;;;;;100.03;43.13;;;14.80;99.90;;;;;;5032541;28;20044;-72
2022/09/12 07:33:39;;;;;;;101.75;44.08;;;14.80;99.90;;;;;;5046881;28;20187;-71
2022/09/12 07:36:07;;;;;;;104.05;42.53;;;14.80;99.90;;;;;;5048472;28;20037;-72
2022/09/12 07:38:33;;;;;;;91.85;40.58;;;14.90;99.90;;;;;;5053716;28;20137;-71
2022/09/12 07:41:00;;;;;;;95.68;42.33;;;15.00;99.90;;;;;;5058738;28;20143;-72
2022/09/12 07:43:26;;;;;;;108.82;43.97;;;14.90;99.90;;;;;;5051722;28;20439;-72
2022/09/12 07:45:57;;;;;;;98.70;43.42;;;15.10;99.90;;;;;;5058539;28;20177;-72
2022/09/12 07:48:23;;;;;;;108.03;45.42;;;15.20;99.90;;;;;;5052280;28;20083;-72
2022/09/12 07:51:00;;;;;;;92.82;42.20;;;15.30;99.90;;;;;;5055702;28;20467;-72
2022/09/12 07:53:40;;;;;;;95.80;41.50;;;15.30;99.90;;;;;;5053902;28;20041;-72
2022/09/12 07:56:09;;;;;;;104.40;43.83;;;15.30;99.90;;;;;;5044108;28;20046;-73
2022/09/12 07:58:35;;;;;;;100.45;43.55;;;15.50;99.90;;;;;;5054757;28;20040;-72
2022/09/12 08:01:15;;;;;;;104.07;45.28;;;15.50;99.90;;;;;;5055127;28;20045;-71
2022/09/12 08:03:42;;;;;;;95.68;42.33;;;15.50;99.90;;;;;;5057471;28;20128;-71
2022/09/12 08:06:15;;;;;;;102.35;44.38;;;15.50;99.90;;;;;;5038178;28;20392;-71
2022/09/12 08:08:41;;;;;;;97.88;43.30;;;15.70;99.90;;;;;;5051446;28;20505;-72
2022/09/12 08:11:09;;;;;;;97.85;42.97;;;15.70;99.90;;;;;;5057402;28;20047;-71
2022/09/12 08:13:37;;;;;;;92.85;42.20;;;15.80;99.90;;;;;;5047649;28;20048;-71
2022/09/12 08:16:26;;;;;;;92.13;43.53;;;15.90;99.90;;;;;;5051950;28;20105;-69
2022/09/12 08:18:51;;;;;;;97.20;44.22;;;16.00;99.90;;;;;;5053763;28;20448;-71
2022/09/12 08:21:21;;;;;;;92.65;42.33;;;16.30;99.90;;;;;;5054431;28;20069;-71
2022/09/12 08:23:52;;;;;;;98.40;45.05;;;16.30;99.90;;;;;;5055630;28;20491;-70
2022/09/12 08:26:18;;;;;;;97.60;44.75;;;16.50;99.90;;;;;;5054710;28;20067;-71
2022/09/12 08:28:44;;;;;;;91.70;43.33;;;16.50;99.90;;;;;;5049000;28;20096;-73
2022/09/12 08:31:12;;;;;;;87.80;41.90;;;16.60;99.90;;;;;;5055660;28;20040;-72
2022/09/12 08:33:38;;;;;;;91.75;42.03;;;16.60;99.90;;;;;;5041423;28;20040;-72
2022/09/12 08:36:14;;;;;;;92.20;43.85;;;16.80;99.90;;;;;;5049391;28;20136;-72
2022/09/12 08:38:42;;;;;;;82.97;41.80;;;16.80;99.90;;;;;;5042736;28;20048;-72
2022/09/12 08:41:17;;;;;;;92.22;43.28;;;16.90;99.90;;;;;;5051518;28;20494;-73
2022/09/12 08:44:01;;;;;;;89.95;43.15;;;17.00;99.90;;;;;;5055960;28;20045;-72
2022/09/12 08:46:36;;;;;;;90.57;42.97;;;17.00;99.90;;;;;;5072357;28;20036;-71
2022/09/12 08:49:04;;;;;;;90.68;42.33;;;17.20;99.90;;;;;;5058478;28;20037;-72
2022/09/12 08:51:33;;;;;;;87.22;42.53;;;17.10;99.90;;;;;;5053012;28;20033;-70
2022/09/12 08:54:01;;;;;;;85.63;42.50;;;17.40;99.90;;;;;;5055012;28;20048;-70
2022/09/12 08:56:30;;;;;;;85.30;42.70;;;17.40;99.90;;;;;;5070955;28;20047;-72
2022/09/12 08:58:56;;;;;;;87.60;42.25;;;17.50;99.90;;;;;;5050818;28;20364;-72
2022/09/12 09:01:30;;;;;;;80.93;42.30;;;17.60;99.90;;;;;;5055720;28;20106;-72
2022/09/12 09:04:21;;;;;;;80.18;40.85;;;17.60;99.90;;;;;;5038400;28;20040;-71
2022/09/12 09:07:24;;;;;;;80.90;41.42;;;17.70;99.90;;;;;;5060718;28;20536;-70
2022/09/12 09:09:59;;;;;;;85.82;42.00;;;17.80;99.90;;;;;;5051275;28;20069;-70
2022/09/12 09:12:57;;;;;;;78.72;41.10;;;17.80;99.90;;;;;;5053282;28;20068;-71
2022/09/12 09:15:42;;;;;;;69.70;37.78;;;17.80;99.90;;;;;;5049281;28;20052;-71
2022/09/12 09:18:23;;;;;;;78.68;39.10;;;18.00;99.90;;;;;;5045405;28;20132;-70
2022/09/12 09:20:56;;;;;;;75.10;38.93;;;18.00;99.90;;;;;;5071477;28;20431;-72
2022/09/12 09:23:37;;;;;;;70.55;37.92;;;18.20;99.90;;;;;;5052119;28;20049;-71
2022/09/12 09:26:13;;;;;;;78.50;39.65;;;18.30;99.90;;;;;;5073635;28;20098;-72
2022/09/12 09:28:43;;;;;;;81.57;38.45;;;18.50;99.90;;;;;;5059138;28;20045;-67
2022/09/12 09:31:21;;;;;;;72.00;38.45;;;18.50;99.90;;;;;;5047380;28;20033;-68
2022/09/12 09:33:53;;;;;;;75.90;38.67;;;18.60;99.90;;;;;;5042835;28;20033;-70
2022/09/12 09:36:29;;;;;;;75.47;40.05;;;18.70;99.90;;;;;;5041509;28;20098;-69
2022/09/12 09:39:09;;;;;;;74.30;38.97;;;18.70;99.90;;;;;;5047982;28;20048;-69
2022/09/12 09:41:47;;;;;;;67.40;36.72;;;18.80;99.90;;;;;;5046758;28;20044;-71
2022/09/12 09:44:13;;;;;;;76.05;39.45;;;18.80;99.90;;;;;;5046601;28;20041;-67
2022/09/12 09:46:38;;;;;;;71.75;38.97;;;18.90;99.90;;;;;;5047357;28;20048;-69
2022/09/12 09:49:05;;;;;;;71.78;37.90;;;18.90;99.90;;;;;;5045030;28;20043;-69
2022/09/12 09:51:37;;;;;;;73.30;37.92;;;18.80;99.90;;;;;;5047343;28;20380;-69
2022/09/12 09:54:17;;;;;;;68.35;37.78;;;18.80;99.90;;;;;;5051259;28;20047;-67
2022/09/12 09:56:43;;;;;;;68.18;37.47;;;19.00;99.90;;;;;;5066652;28;20545;-66
2022/09/12 09:59:32;;;;;;;66.35;36.97;;;19.10;99.90;;;;;;5054823;28;20041;-67
2022/09/12 10:02:02;;;;;;;65.80;36.25;;;19.20;99.90;;;;;;5044048;28;20048;-67
2022/09/12 10:04:38;;;;;;;65.22;37.22;;;19.20;99.90;;;;;;5047449;28;20067;-66
2022/09/12 10:07:04;;;;;;;68.70;36.53;;;19.40;99.90;;;;;;5030537;28;20052;-68
2022/09/12 10:09:35;;;;;;;64.95;36.35;;;19.40;99.90;;;;;;5052300;28;20037;-66
2022/09/12 10:12:27;;;;;;;68.28;38.20;;;19.50;99.90;;;;;;5054671;28;20392;-66
2022/09/12 10:14:57;;;;;;;;;;;19.60;99.90;;;;;;5058896;28;20052;-66
2022/09/12 10:17:27;;;;;;;62.45;35.90;;;19.80;99.90;;;;;;5051876;28;19916;-67
2022/09/12 10:19:53;;;;;;;53.47;32.47;;;19.90;99.90;;;;;;5051387;28;20045;-66
2022/09/12 10:22:22;;;;;;;65.10;35.75;;;20.00;99.90;;;;;;5045844;28;20041;-67
2022/09/12 10:24:59;;;;;;;56.65;32.53;;;20.10;99.90;;;;;;5049813;28;20049;-66
2022/09/12 10:27:29;;;;;;;58.92;34.75;;;20.20;99.90;;;;;;5038683;28;20154;-66
2022/09/12 10:30:20;;;;;;;59.80;32.95;;;20.30;99.90;;;;;;5068785;28;20514;-67
2022/09/12 10:32:52;;;;;;;58.22;33.97;;;20.40;99.90;;;;;;5050719;28;20159;-67
2022/09/12 10:35:21;;;;;;;63.00;34.22;;;20.40;99.90;;;;;;5051980;28;20052;-66
2022/09/12 10:37:55;;;;;;;55.22;33.38;;;20.50;99.90;;;;;;5052108;28;20032;-67
2022/09/12 10:40:31;;;;;;;60.67;32.92;;;20.60;99.90;;;;;;5045907;28;20055;-66
2022/09/12 10:43:01;;;;;;;58.00;32.20;;;20.70;99.90;;;;;;5048306;28;20624;-67
2022/09/12 10:45:36;;;;;;;51.10;29.33;;;20.70;99.90;;;;;;5050900;28;20084;-68
2022/09/12 10:48:28;;;;;;;54.17;29.75;;;20.70;99.90;;;;;;5051292;28;20037;-67
2022/09/12 10:50:55;;;;;;;;;;;20.80;99.90;;;;;;5051999;28;20382;-68
2022/09/12 10:53:24;;;;;;;46.97;27.63;;;20.90;99.90;;;;;;5046740;28;19917;-68
2022/09/12 10:55:58;;;;;;;48.42;27.70;;;21.00;99.90;;;;;;5052188;28;20048;-69
2022/09/12 10:58:43;;;;;;;48.10;28.73;;;21.00;99.90;;;;;;5055494;28;20045;-67
2022/09/12 11:01:33;;;;;;;50.28;28.00;;;21.10;99.90;;;;;;5057576;28;20375;-67
2022/09/12 11:04:29;;;;;;;50.95;28.90;;;21.10;99.90;;;;;;5050179;28;20095;-68
2022/09/12 11:07:19;;;;;;;48.28;27.83;;;21.10;99.90;;;;;;5051597;28;20106;-68
2022/09/12 11:10:21;;;;;;;46.47;25.88;;;21.10;99.90;;;;;;5046753;28;20037;-68
2022/09/12 11:13:12;;;;;;;39.25;23.20;;;21.30;99.90;;;;;;5044121;28;20531;-68
2022/09/12 11:15:56;;;;;;;39.60;23.23;;;21.30;99.90;;;;;;5064779;28;20044;-69
2022/09/12 11:18:43;;;;;;;34.50;19.73;;;21.30;99.90;;;;;;5040292;28;20053;-69
2022/09/12 11:21:21;;;;;;;32.03;18.80;;;21.40;99.90;;;;;;5044105;28;20036;-70
2022/09/12 11:24:02;;;;;;;27.58;16.10;;;21.30;99.90;;;;;;5049553;28;20045;-70
2022/09/12 11:26:49;;;;;;;28.75;17.27;;;21.30;99.90;;;;;;5048573;28;20588;-72
2022/09/12 11:29:24;;;;;;;30.27;19.55;;;21.20;99.90;;;;;;5057397;28;20119;-69
2022/09/12 11:32:21;;;;;;;30.85;18.85;;;21.20;99.90;;;;;;5047268;28;20041;-69
2022/09/12 11:35:07;;;;;;;34.03;20.13;;;21.20;99.90;;;;;;5039185;28;20136;-68
2022/09/12 11:37:53;;;;;;;29.70;17.60;;;21.20;99.90;;;;;;5034062;28;20533;-71
2022/09/12 11:40:26;;;;;;;29.38;18.17;;;21.20;99.90;;;;;;5044179;28;20383;-68
2022/09/12 11:42:58;;;;;;;27.38;16.70;;;21.30;99.90;;;;;;5058844;28;20123;-69
2022/09/12 11:46:04;;;;;;;28.20;17.38;;;21.40;99.90;;;;;;5068611;28;20041;-69
2022/09/12 11:48:29;;;;;;;26.73;16.50;;;21.50;99.90;;;;;;5043108;28;20059;-69
2022/09/12 11:50:56;;;;;;;28.13;17.27;;;21.60;99.90;;;;;;5050446;28;20395;-70
2022/09/12 11:53:28;;;;;;;28.63;18.98;;;21.60;99.90;;;;;;5048667;28;20263;-69
2022/09/12 11:55:53;;;;;;;28.97;17.90;;;21.60;99.90;;;;;;5049569;28;20084;-69
2022/09/12 11:58:23;;;;;;;30.20;18.45;;;21.70;99.90;;;;;;5046217;28;20107;-71
2022/09/12 12:00:54;;;;;;;30.33;17.45;;;21.70;99.90;;;;;;5048633;28;20037;-68
2022/09/12 12:03:26;;;;;;;29.87;17.80;;;21.70;99.90;;;;;;5047989;28;20480;-70
2022/09/12 12:06:05;;;;;;;24.73;15.85;;;21.70;99.90;;;;;;5044658;28;20048;-67
2022/09/12 12:08:37;;;;;;;28.42;18.02;;;21.70;99.90;;;;;;5049172;28;20044;-70
2022/09/12 12:11:04;;;;;;;30.00;18.27;;;21.70;99.90;;;;;;5038435;28;20485;-68
2022/09/12 12:13:44;;;;;;;27.98;17.42;;;21.70;99.90;;;;;;5039169;28;20037;-67
2022/09/12 12:16:12;;;;;;;28.50;17.35;;;21.70;99.90;;;;;;5047535;28;20033;-71
2022/09/12 12:18:39;;;;;;;30.98;20.08;;;21.70;99.90;;;;;;5032395;28;20076;-69
2022/09/12 12:21:36;;;;;;;32.42;19.10;;;21.80;99.90;;;;;;5039946;28;20162;-68
2022/09/12 12:24:07;;;;;;;35.65;21.40;;;21.80;99.90;;;;;;5048845;28;20045;-71
2022/09/12 12:26:41;;;;;;;35.28;20.63;;;21.80;99.90;;;;;;5048176;28;20430;-68
2022/09/12 12:29:29;;;;;;;33.80;20.92;;;21.70;99.90;;;;;;5035039;28;20102;-69
2022/09/12 12:31:58;;;;;;;35.70;21.55;;;21.80;99.90;;;;;;5027624;28;20046;-69
2022/09/12 12:34:31;;;;;;;34.10;21.35;;;21.80;99.90;;;;;;5029139;28;20080;-69
2022/09/12 12:36:58;;;;;;;32.40;19.42;;;21.90;99.90;;;;;;5037484;28;20124;-68
2022/09/12 12:39:32;;;;;;;31.17;18.40;;;22.00;99.90;;;;;;5062421;28;20037;-70
2022/09/12 12:42:02;;;;;;;32.25;19.75;;;22.00;99.90;;;;;;5054942;28;20040;-69
2022/09/12 12:44:43;;;;;;;32.60;18.98;;;22.10;99.90;;;;;;5053354;28;20566;-70
2022/09/12 12:47:24;;;;;;;30.13;19.48;;;22.10;99.90;;;;;;5054751;28;20046;-71
2022/09/12 12:50:06;;;;;;;28.10;18.48;;;22.10;99.90;;;;;;5048573;28;20044;-71
2022/09/12 12:52:47;;;;;;;32.65;20.67;;;22.10;99.90;;;;;;5041368;28;20052;-71
2022/09/12 12:55:41;;;;;;;34.22;19.45;;;22.20;99.90;;;;;;5051219;28;20087;-70
2022/09/12 12:58:27;;;;;;;26.83;17.77;;;22.30;99.90;;;;;;5058836;28;20076;-69